createdAt,value
2018-02-15T00:01:28.174Z,20.12
2018-02-15T00:03:56.544Z,22.17
2018-02-15T00:06:25.677Z,22.55
2018-02-15T00:08:54.373Z,20.27
2018-02-15T00:11:22.739Z,18.80
2018-02-15T00:13:51.878Z,19.55
2018-02-15T00:16:20.334Z,22.17
2018-02-15T00:18:48.730Z,23.30
2018-02-15T00:21:17.894Z,23.48
2018-02-15T00:23:46.265Z,24.02
2018-02-15T00:26:14.850Z,23.35
2018-02-15T00:28:43.218Z,25.83
2018-02-15T00:31:12.454Z,24.65
2018-02-15T00:33:40.858Z,22.52
2018-02-15T00:36:09.226Z,22.20
2018-02-15T00:38:37.630Z,24.98
2018-02-15T00:41:06.022Z,25.60
2018-02-15T00:43:34.422Z,24.48
2018-02-15T00:46:02.786Z,20.27
2018-02-15T00:48:31.918Z,16.77
2018-02-15T00:51:00.310Z,21.35
2018-02-15T00:53:28.682Z,23.92
2018-02-15T00:55:58.006Z,21.08
2018-02-15T00:58:26.401Z,21.77
2018-02-15T01:00:55.001Z,22.70
2018-02-15T01:03:23.378Z,21.42
2018-02-15T01:05:51.741Z,20.55
2018-02-15T01:08:20.174Z,29.80
2018-02-15T01:10:48.537Z,23.00
2018-02-15T01:13:17.702Z,22.23
2018-02-15T01:15:46.107Z,19.85
2018-02-15T01:18:14.555Z,20.35
2018-02-15T01:20:42.945Z,19.27
2018-02-15T01:23:11.646Z,19.30
2018-02-15T01:25:40.226Z,19.33
2018-02-15T01:28:09.590Z,17.08
2018-02-15T01:30:37.990Z,18.33
2018-02-15T01:33:06.354Z,20.98
2018-02-15T01:35:34.749Z,17.83
2018-02-15T01:38:03.222Z,21.65
2018-02-15T01:40:31.618Z,17.60
2018-02-15T01:42:59.986Z,18.08
2018-02-15T01:45:29.123Z,19.52
2018-02-15T01:47:57.608Z,16.80
2018-02-15T01:50:26.009Z,18.92
2018-02-15T01:52:54.373Z,14.35
2018-02-15T01:55:23.538Z,15.95
2018-02-15T01:57:51.903Z,18.10
2018-02-15T02:00:20.302Z,19.55
2018-02-15T02:02:48.697Z,18.30
2018-02-15T02:05:17.099Z,19.37
2018-02-15T02:07:45.461Z,20.05
2018-02-15T02:10:13.870Z,17.67
2018-02-15T02:12:42.230Z,18.27
2018-02-15T02:15:10.611Z,19.25
2018-02-15T02:17:39.777Z,17.27
2018-02-15T02:20:08.143Z,19.23
2018-02-15T02:22:36.574Z,17.83
2018-02-15T02:25:04.941Z,22.40
2018-02-15T02:27:33.512Z,19.50
2018-02-15T02:30:01.886Z,18.05
2018-02-15T02:35:05.078Z,18.12
2018-02-15T02:37:33.454Z,20.02
2018-02-15T02:40:01.851Z,16.52
2018-02-15T02:42:30.229Z,15.68
2018-02-15T02:44:58.627Z,18.23
2018-02-15T02:47:26.994Z,18.83
2018-02-15T02:49:55.392Z,19.58
2018-02-15T02:52:23.761Z,18.20
2018-02-15T02:54:52.161Z,18.65
2018-02-15T02:57:20.561Z,17.85
2018-02-15T02:59:48.966Z,18.48
2018-02-15T03:02:17.370Z,18.58
2018-02-15T03:04:45.786Z,18.65
2018-02-15T03:07:14.213Z,19.33
2018-02-15T03:09:42.586Z,16.52
2018-02-15T03:12:11.750Z,18.25
2018-02-15T03:14:41.650Z,19.77
2018-02-15T03:17:10.078Z,18.42
2018-02-15T03:19:38.449Z,17.75
2018-02-15T03:22:06.858Z,18.42
2018-02-15T03:24:35.226Z,18.58
2018-02-15T03:27:03.622Z,19.83
2018-02-15T03:29:31.986Z,19.95
2018-02-15T03:32:00.355Z,20.95
2018-02-15T03:34:29.523Z,20.12
2018-02-15T03:36:57.879Z,20.05
2018-02-15T03:39:26.246Z,18.80
2018-02-15T03:41:55.411Z,19.42
2018-02-15T03:44:23.813Z,20.33
2018-02-15T03:46:52.215Z,23.05
2018-02-15T03:49:20.620Z,20.58
2018-02-15T03:51:49.073Z,21.77
2018-02-15T03:54:17.437Z,20.02
2018-02-15T03:56:45.804Z,20.50
2018-02-15T03:59:14.977Z,23.85
2018-02-15T04:01:43.341Z,21.92
2018-02-15T04:04:11.708Z,21.02
2018-02-15T04:06:40.870Z,21.58
2018-02-15T04:09:09.235Z,23.10
2018-02-15T04:11:37.738Z,20.23
2018-02-15T04:14:06.107Z,24.45
2018-02-15T04:16:34.474Z,19.77
2018-02-15T04:19:03.645Z,20.67
2018-02-15T04:21:32.043Z,22.90
2018-02-15T04:24:00.406Z,24.20
2018-02-15T04:26:28.805Z,23.92
2018-02-15T04:28:57.201Z,25.12
2018-02-15T04:31:25.565Z,25.25
2018-02-15T04:33:53.965Z,24.95
2018-02-15T04:36:22.325Z,24.95
2018-02-15T04:38:51.490Z,25.73
2018-02-15T04:41:19.954Z,26.25
2018-02-15T04:43:48.350Z,27.73
2018-02-15T04:46:16.755Z,23.77
2018-02-15T04:48:45.127Z,25.88
2018-02-15T04:51:13.533Z,25.00
2018-02-15T04:53:41.904Z,31.52
2018-02-15T04:56:10.301Z,26.35
2018-02-15T04:58:38.666Z,26.75
2018-02-15T05:01:07.801Z,26.45
2018-02-15T05:03:36.202Z,29.45
2018-02-15T05:06:04.601Z,27.50
2018-02-15T05:08:33.014Z,27.77
2018-02-15T05:11:01.388Z,31.35
2018-02-15T05:13:29.758Z,27.60
2018-02-15T05:15:58.157Z,28.60
2018-02-15T05:18:26.553Z,31.98
2018-02-15T05:20:54.925Z,27.58
2018-02-15T05:23:23.294Z,25.27
2018-02-15T05:25:52.575Z,26.30
2018-02-15T05:28:20.962Z,23.80
2018-02-15T05:30:49.331Z,26.42
2018-02-15T05:33:17.726Z,26.20
2018-02-15T05:35:46.125Z,25.10
2018-02-15T05:38:14.493Z,25.20
2018-02-15T05:40:42.986Z,23.25
2018-02-15T05:43:11.393Z,26.40
2018-02-15T05:45:39.757Z,24.98
2018-02-15T05:48:08.122Z,22.60
2018-02-15T05:50:37.289Z,23.65
2018-02-15T05:53:05.657Z,23.20
2018-02-15T05:55:34.061Z,26.23
2018-02-15T05:58:02.423Z,27.30
2018-02-15T06:00:31.549Z,25.40
2018-02-15T06:02:59.965Z,24.50
2018-02-15T06:05:28.337Z,23.85
2018-02-15T06:07:56.737Z,26.58
2018-02-15T06:10:25.097Z,27.42
2018-02-15T06:12:54.258Z,22.65
2018-02-15T06:15:22.618Z,23.17
2018-02-15T06:17:51.018Z,23.30
2018-02-15T06:20:19.588Z,27.27
2018-02-15T06:22:48.389Z,26.08
2018-02-15T06:25:16.982Z,28.58
2018-02-15T06:27:46.398Z,25.73
2018-02-15T06:30:16.123Z,24.27
2018-02-15T06:32:44.717Z,24.27
2018-02-15T06:35:14.132Z,26.27
2018-02-15T06:37:43.549Z,28.48
2018-02-15T06:40:12.145Z,25.58
2018-02-15T06:42:40.843Z,24.60
2018-02-15T06:45:10.258Z,25.05
2018-02-15T06:47:39.674Z,25.75
2018-02-15T06:50:09.091Z,28.25
2018-02-15T06:52:38.915Z,25.37
2018-02-15T06:55:07.560Z,29.17
2018-02-15T06:57:36.062Z,21.62
2018-02-15T07:00:04.606Z,23.65
2018-02-15T07:02:33.102Z,25.30
2018-02-15T07:05:01.794Z,28.30
2018-02-15T07:07:30.417Z,25.62
2018-02-15T07:09:59.294Z,26.35
2018-02-15T07:12:28.712Z,26.05
2018-02-15T07:14:57.641Z,24.55
2018-02-15T07:17:26.720Z,25.10
2018-02-15T07:19:56.239Z,24.73
2018-02-15T07:22:24.835Z,25.40
2018-02-15T07:24:54.197Z,23.98
2018-02-15T07:27:23.267Z,29.10
2018-02-15T07:29:51.853Z,25.12
2018-02-15T07:32:21.218Z,25.45
2018-02-15T07:34:49.870Z,25.27
2018-02-15T07:37:18.564Z,24.52
2018-02-15T07:39:47.978Z,25.23
2018-02-15T07:42:17.392Z,25.65
2018-02-15T07:44:46.807Z,24.65
2018-02-15T07:47:16.223Z,27.17
2018-02-15T07:49:45.639Z,26.45
2018-02-15T07:52:15.054Z,25.92
2018-02-15T07:54:44.469Z,26.33
2018-02-15T07:57:13.885Z,26.35
2018-02-15T07:59:43.403Z,28.17
2018-02-15T08:02:12.818Z,23.92
2018-02-15T08:04:42.131Z,24.00
2018-02-15T08:07:11.550Z,23.17
2018-02-15T08:09:40.143Z,22.92
2018-02-15T08:12:09.559Z,26.02
2018-02-15T08:14:38.974Z,25.75
2018-02-15T08:17:08.390Z,26.85
2018-02-15T08:19:37.806Z,26.05
2018-02-15T08:22:06.403Z,25.05
2018-02-15T08:24:34.997Z,27.37
2018-02-15T08:27:04.618Z,26.33
2018-02-15T08:29:33.317Z,23.98
2018-02-15T08:32:02.775Z,26.50
2018-02-15T08:34:31.533Z,27.02
2018-02-15T08:37:00.949Z,26.15
2018-02-15T08:39:30.364Z,27.37
2018-02-15T08:41:59.780Z,24.25
2018-02-15T08:44:29.195Z,24.65
2018-02-15T08:46:58.611Z,27.17
2018-02-15T08:49:29.257Z,27.73
2018-02-15T08:51:58.773Z,24.80
2018-02-15T08:54:28.191Z,24.45
2018-02-15T08:56:56.888Z,26.15
2018-02-15T08:59:26.303Z,23.42
2018-02-15T09:01:55.002Z,24.30
2018-02-15T09:04:23.700Z,23.20
2018-02-15T09:06:53.116Z,25.27
2018-02-15T09:09:22.838Z,24.85
2018-02-15T09:11:51.435Z,22.40
2018-02-15T09:14:20.031Z,25.08
2018-02-15T09:16:49.446Z,22.67
2018-02-15T09:19:18.043Z,24.95
2018-02-15T09:21:46.740Z,23.67
2018-02-15T09:24:16.101Z,24.50
2018-02-15T09:26:44.753Z,24.05
2018-02-15T09:29:13.757Z,25.20
2018-02-15T09:31:43.174Z,26.37
2018-02-15T09:34:12.588Z,27.08
2018-02-15T09:36:42.008Z,25.33
2018-02-15T09:39:11.424Z,24.55
2018-02-15T09:41:40.123Z,25.90
2018-02-15T09:44:08.718Z,26.40
2018-02-15T09:46:38.130Z,26.35
2018-02-15T09:49:06.674Z,24.85
2018-02-15T09:51:35.325Z,23.62
2018-02-15T09:54:03.918Z,29.65
2018-02-15T09:56:33.334Z,24.25
2018-02-15T09:59:02.749Z,27.60
2018-02-15T10:01:31.346Z,28.40
2018-02-15T10:03:59.930Z,26.15
2018-02-15T10:06:28.465Z,24.50
2018-02-15T10:08:57.789Z,24.48
2018-02-15T10:11:26.366Z,21.20
2018-02-15T10:13:54.897Z,20.17
2018-02-15T10:16:23.435Z,20.48
2018-02-15T10:18:52.864Z,20.90
2018-02-15T10:21:22.395Z,19.95
2018-02-15T10:23:51.925Z,19.67
2018-02-15T10:26:21.357Z,20.15
2018-02-15T10:28:50.898Z,19.80
2018-02-15T10:31:19.602Z,21.40
2018-02-15T10:33:48.238Z,20.20
2018-02-15T10:36:17.199Z,24.65
2018-02-15T10:38:45.832Z,22.73
2018-02-15T10:41:15.262Z,23.00
2018-02-15T10:43:44.997Z,20.10
2018-02-15T10:46:14.528Z,20.60
2018-02-15T10:48:43.833Z,23.35
2018-02-15T10:51:12.463Z,19.35
2018-02-15T10:53:41.891Z,22.55
2018-02-15T10:56:11.222Z,20.90
2018-02-15T10:58:40.522Z,23.62
2018-02-15T11:01:15.503Z,24.55
2018-02-15T11:03:44.798Z,24.33
2018-02-15T11:06:13.328Z,23.23
2018-02-15T11:08:42.761Z,24.17
2018-02-15T11:11:12.191Z,21.77
2018-02-15T11:13:41.579Z,21.10
2018-02-15T11:16:10.227Z,21.15
2018-02-15T11:18:39.964Z,22.52
2018-02-15T11:21:09.391Z,21.12
2018-02-15T11:23:38.820Z,20.77
2018-02-15T11:26:08.155Z,18.30
2018-02-15T11:28:37.486Z,20.98
2018-02-15T11:31:06.286Z,23.52
2018-02-15T11:33:35.146Z,21.90
2018-02-15T11:36:04.129Z,19.27
2018-02-15T11:38:32.928Z,22.70
2018-02-15T11:41:01.813Z,22.58
2018-02-15T11:43:30.630Z,22.05
2018-02-15T11:45:59.477Z,21.55
2018-02-15T11:48:29.725Z,22.50
2018-02-15T11:50:58.570Z,24.75
2018-02-15T11:53:27.346Z,23.83
2018-02-15T11:55:56.774Z,23.52
2018-02-15T11:58:26.203Z,22.20
2018-02-15T12:00:55.631Z,23.60
2018-02-15T12:03:25.064Z,25.50
2018-02-15T12:05:54.488Z,21.50
2018-02-15T12:08:23.774Z,20.90
2018-02-15T12:10:52.657Z,24.10
2018-02-15T12:13:21.260Z,22.13
2018-02-15T12:15:49.838Z,22.92
2018-02-15T12:18:18.447Z,27.70
2018-02-15T12:20:48.726Z,24.75
2018-02-15T12:23:17.350Z,22.65
2018-02-15T12:25:45.921Z,21.52
2018-02-15T12:28:14.530Z,25.00
2018-02-15T12:30:43.917Z,22.73
2018-02-15T12:33:12.568Z,25.67
2018-02-15T12:35:42.508Z,21.25
2018-02-15T12:38:11.936Z,22.08
2018-02-15T12:40:41.263Z,25.27
2018-02-15T12:43:10.589Z,22.42
2018-02-15T12:45:40.017Z,22.73
2018-02-15T12:48:09.129Z,20.33
2018-02-15T12:50:38.261Z,19.55
2018-02-15T12:53:07.370Z,25.45
2018-02-15T12:55:36.597Z,23.17
2018-02-15T12:58:05.765Z,22.90
2018-02-15T13:00:34.287Z,23.50
2018-02-15T13:03:03.802Z,23.77
2018-02-15T13:05:32.363Z,24.30
2018-02-15T13:08:01.626Z,24.12
2018-02-15T13:10:31.327Z,18.45
2018-02-15T13:13:11.637Z,25.58
2018-02-15T13:15:51.998Z,24.60
2018-02-15T13:18:21.105Z,24.73
2018-02-15T13:20:49.598Z,25.23
2018-02-15T13:23:19.962Z,25.92
2018-02-15T13:25:48.509Z,23.00
2018-02-15T13:28:28.880Z,24.63
2018-02-15T13:30:57.238Z,25.08
2018-02-15T13:33:25.618Z,25.62
2018-02-15T13:35:53.958Z,22.98
2018-02-15T13:38:22.470Z,22.58
2018-02-15T13:40:50.875Z,24.55
2018-02-15T13:43:19.478Z,22.33
2018-02-15T13:45:48.763Z,23.67
2018-02-15T13:48:17.408Z,25.60
2018-02-15T13:50:46.574Z,24.03
2018-02-15T13:53:14.910Z,24.42
2018-02-15T13:55:43.559Z,26.40
2018-02-15T13:58:12.690Z,22.80
2018-02-15T14:00:41.796Z,24.83
2018-02-15T14:03:10.170Z,25.25
2018-02-15T14:05:38.558Z,26.30
2018-02-15T14:08:06.879Z,25.17
2018-02-15T14:10:35.354Z,25.52
2018-02-15T14:13:04.571Z,24.27
2018-02-15T14:15:33.235Z,23.35
2018-02-15T14:18:02.626Z,22.87
2018-02-15T14:20:32.298Z,23.20
2018-02-15T14:23:01.110Z,22.17
2018-02-15T14:25:29.754Z,24.20
2018-02-15T14:27:58.320Z,25.42
2018-02-15T14:30:26.874Z,23.05
2018-02-15T14:32:55.262Z,24.12
2018-02-15T14:35:24.366Z,26.85
2018-02-15T14:37:53.466Z,22.42
2018-02-15T14:40:21.840Z,21.75
2018-02-15T14:42:50.301Z,24.02
2018-02-15T14:45:18.738Z,26.05
2018-02-15T14:47:47.079Z,25.70
2018-02-15T14:50:16.222Z,25.12
2018-02-15T14:52:44.599Z,26.17
2018-02-15T14:55:12.942Z,25.73
2018-02-15T14:57:42.173Z,25.42
2018-02-15T15:00:10.531Z,23.50
2018-02-15T15:02:39.639Z,23.33
2018-02-15T15:05:08.006Z,24.92
2018-02-15T15:07:36.346Z,21.90
2018-02-15T15:10:04.797Z,24.92
2018-02-15T15:12:34.042Z,25.15
2018-02-15T15:15:02.514Z,24.52
2018-02-15T15:17:30.999Z,23.55
2018-02-15T15:19:59.481Z,22.73
2018-02-15T15:22:27.938Z,25.30
2018-02-15T15:24:57.047Z,23.55
2018-02-15T15:27:25.390Z,24.17
2018-02-15T15:29:53.834Z,24.02
2018-02-15T15:32:22.235Z,22.42
2018-02-15T15:34:50.814Z,22.87
2018-02-15T15:37:19.246Z,22.83
2018-02-15T15:39:49.234Z,22.50
2018-02-15T15:42:17.621Z,21.83
2018-02-15T15:44:45.966Z,21.20
2018-02-15T15:47:14.307Z,24.10
2018-02-15T15:49:42.678Z,21.80
2018-02-15T15:52:11.027Z,20.08
2018-02-15T15:54:39.397Z,21.95
2018-02-15T15:57:07.850Z,19.63
2018-02-15T15:59:36.287Z,18.40
2018-02-15T16:02:04.854Z,20.48
2018-02-15T16:04:33.650Z,22.02
2018-02-15T16:07:02.489Z,22.33
2018-02-15T16:09:31.098Z,23.70
2018-02-15T16:11:59.690Z,21.40
2018-02-15T16:14:28.065Z,19.80
2018-02-15T16:16:56.522Z,23.37
2018-02-15T16:19:24.866Z,20.20
2018-02-15T16:21:53.186Z,22.00
2018-02-15T16:24:21.674Z,22.30
2018-02-15T16:26:50.795Z,19.30
2018-02-15T16:29:19.937Z,20.40
2018-02-15T16:31:48.302Z,22.93
2018-02-15T16:34:16.623Z,21.50
2018-02-15T16:36:45.715Z,20.67
2018-02-15T16:39:14.078Z,20.13
2018-02-15T16:41:42.682Z,20.47
2018-02-15T16:44:11.018Z,20.93
2018-02-15T16:46:39.339Z,20.13
2018-02-15T16:49:07.811Z,19.70
2018-02-15T16:51:36.262Z,20.40
2018-02-15T16:54:04.717Z,22.95
2018-02-15T16:56:33.544Z,20.23
2018-02-15T16:59:02.030Z,18.63
2018-02-15T17:01:30.716Z,19.95
2018-02-15T17:03:59.283Z,23.63
2018-02-15T17:06:27.743Z,20.90
2018-02-15T17:08:56.048Z,19.90
2018-02-15T17:11:24.387Z,21.17
2018-02-15T17:13:52.759Z,22.00
2018-02-15T17:16:21.073Z,20.33
2018-02-15T17:18:49.878Z,20.90
2018-02-15T17:21:18.194Z,24.50
2018-02-15T17:23:46.538Z,21.15
2018-02-15T17:26:15.711Z,20.97
2018-02-15T17:28:44.023Z,19.10
2018-02-15T17:31:12.362Z,18.70
2018-02-15T17:33:40.710Z,22.77
2018-02-15T17:36:09.346Z,18.53
2018-02-15T17:38:37.787Z,22.00
2018-02-15T17:41:06.879Z,19.50
2018-02-15T17:43:35.297Z,19.57
2018-02-15T17:46:03.986Z,19.63
2018-02-15T17:48:34.049Z,17.50
2018-02-15T17:51:03.546Z,19.53
2018-02-15T17:53:32.862Z,17.47
2018-02-15T17:56:03.413Z,19.27
2018-02-15T17:58:32.768Z,17.10
2018-02-15T18:01:02.652Z,15.47
2018-02-15T18:03:32.350Z,16.10
2018-02-15T18:06:02.242Z,15.77
2018-02-15T18:08:33.879Z,13.07
2018-02-15T18:11:04.394Z,16.77
2018-02-15T18:13:33.594Z,17.10
2018-02-15T18:16:03.941Z,16.43
2018-02-15T18:18:33.107Z,16.60
2018-02-15T18:21:02.750Z,15.57
2018-02-15T18:23:32.470Z,13.13
2018-02-15T18:26:02.483Z,15.43
2018-02-15T18:28:33.267Z,13.90
2018-02-15T18:31:04.058Z,13.20
2018-02-15T18:33:33.770Z,13.03
2018-02-15T18:36:04.231Z,14.40
2018-02-15T18:38:33.024Z,14.47
2018-02-15T18:41:02.071Z,14.48
2018-02-15T18:43:30.663Z,13.95
2018-02-15T18:45:59.265Z,13.30
2018-02-15T18:48:27.618Z,15.17
2018-02-15T18:50:56.816Z,16.30
2018-02-15T18:53:25.133Z,14.47
2018-02-15T18:55:54.257Z,12.53
2018-02-15T18:58:23.341Z,14.00
2018-02-15T19:00:51.836Z,14.13
2018-02-15T19:03:20.245Z,12.60
2018-02-15T19:05:49.375Z,13.07
2018-02-15T19:08:17.886Z,16.87
2018-02-15T19:10:46.301Z,16.10
2018-02-15T19:13:14.596Z,15.87
2018-02-15T19:15:43.734Z,14.70
2018-02-15T19:18:12.204Z,15.13
2018-02-15T19:20:40.510Z,15.63
2018-02-15T19:23:08.814Z,12.40
2018-02-15T19:25:37.478Z,14.07
2018-02-15T19:28:06.843Z,15.07
2018-02-15T19:30:36.198Z,15.37
2018-02-15T19:33:05.496Z,14.67
2018-02-15T19:35:34.244Z,16.20
2018-02-15T19:38:02.902Z,15.77
2018-02-15T19:40:31.424Z,15.73
2018-02-15T19:43:00.308Z,13.37
2018-02-15T19:45:28.786Z,15.20
2018-02-15T19:47:57.162Z,15.80
2018-02-15T19:50:25.518Z,16.17
2018-02-15T19:52:53.874Z,16.70
2018-02-15T19:55:22.410Z,16.50
2018-02-15T19:57:51.782Z,13.50
2018-02-15T20:00:20.215Z,15.60
2018-02-15T20:02:48.566Z,15.40
2018-02-15T20:05:17.010Z,15.30
2018-02-15T20:07:45.370Z,14.00
2018-02-15T20:10:13.686Z,15.50
2018-02-15T20:12:42.039Z,14.53
2018-02-15T20:15:10.385Z,17.70
2018-02-15T20:17:38.701Z,16.43
2018-02-15T20:20:12.855Z,16.50
2018-02-15T20:22:41.167Z,15.63
2018-02-15T20:25:10.586Z,16.02
2018-02-15T20:27:44.574Z,17.47
2018-02-15T20:30:13.698Z,17.07
2018-02-15T20:32:42.057Z,16.43
2018-02-15T20:35:10.350Z,16.90
2018-02-15T20:37:45.351Z,15.27
2018-02-15T20:40:19.398Z,14.77
2018-02-15T20:42:48.696Z,15.63
2018-02-15T20:45:17.822Z,16.00
2018-02-15T20:47:46.174Z,15.47
2018-02-15T20:50:20.561Z,16.77
2018-02-15T20:52:54.553Z,17.40
2018-02-15T20:55:28.747Z,17.45
2018-02-15T20:57:57.839Z,14.87
2018-02-15T21:00:26.920Z,16.50
2018-02-15T21:02:55.270Z,16.17
2018-02-15T21:05:23.593Z,15.90
2018-02-15T21:07:52.282Z,17.07
2018-02-15T21:10:20.859Z,15.27
2018-02-15T21:12:49.487Z,15.10
2018-02-15T21:15:18.702Z,13.47
2018-02-15T21:17:47.014Z,16.97
2018-02-15T21:20:15.350Z,16.90
2018-02-15T21:22:43.704Z,15.03
2018-02-15T21:25:12.043Z,16.80
2018-02-15T21:27:40.390Z,16.97
2018-02-15T21:30:08.842Z,15.30
2018-02-15T21:32:37.195Z,14.70
2018-02-15T21:35:05.808Z,15.98
2018-02-15T21:37:34.327Z,15.30
2018-02-15T21:40:02.942Z,15.48
2018-02-15T21:42:31.737Z,16.17
2018-02-15T21:45:00.299Z,15.70
2018-02-15T21:47:29.708Z,16.27
2018-02-15T21:49:58.090Z,16.30
2018-02-15T21:52:26.435Z,18.07
2018-02-15T21:54:54.786Z,18.90
2018-02-15T21:57:23.534Z,17.58
2018-02-15T21:59:52.098Z,16.33
2018-02-15T22:02:20.605Z,18.62
2018-02-15T22:04:50.902Z,16.52
2018-02-15T22:07:19.343Z,19.00
2018-02-15T22:09:47.738Z,17.15
2018-02-15T22:12:16.121Z,16.27
2018-02-15T22:14:44.479Z,18.48
2018-02-15T22:17:12.849Z,17.80
2018-02-15T22:19:41.251Z,16.63
2018-02-15T22:22:10.354Z,15.75
2018-02-15T22:24:38.698Z,17.45
2018-02-15T22:27:07.322Z,17.23
2018-02-15T22:29:36.282Z,19.47
2018-02-15T22:32:04.830Z,17.58
2018-02-15T22:34:33.697Z,16.95
2018-02-15T22:37:02.296Z,17.07
2018-02-15T22:39:31.230Z,17.50
2018-02-15T22:41:59.682Z,17.95
2018-02-15T22:44:29.710Z,17.90
2018-02-15T22:46:58.117Z,17.53
2018-02-15T22:49:27.407Z,17.50
2018-02-15T22:51:56.526Z,16.95
2018-02-15T22:54:24.835Z,18.57
2018-02-15T22:56:53.278Z,18.67
2018-02-15T22:59:21.758Z,19.43
2018-02-15T23:01:50.327Z,16.77
2018-02-15T23:04:18.974Z,17.70
2018-02-15T23:06:47.330Z,18.70
2018-02-15T23:09:15.655Z,15.30
2018-02-15T23:11:44.771Z,16.13
2018-02-15T23:14:13.114Z,18.00
2018-02-15T23:16:42.190Z,19.10
2018-02-15T23:19:10.566Z,16.95
2018-02-15T23:21:38.918Z,18.92
2018-02-15T23:24:08.059Z,18.00
2018-02-15T23:26:37.314Z,17.93
2018-02-15T23:29:06.805Z,18.27
2018-02-15T23:31:35.388Z,19.87
2018-02-15T23:34:04.947Z,19.10
2018-02-15T23:36:33.729Z,18.73
2018-02-15T23:39:02.203Z,18.10
2018-02-15T23:41:30.842Z,19.00
2018-02-15T23:43:59.442Z,18.73
2018-02-15T23:46:27.878Z,21.27
2018-02-15T23:48:56.241Z,19.60
2018-02-15T23:51:24.766Z,18.23
2018-02-15T23:53:53.238Z,16.85
2018-02-15T23:56:21.825Z,21.37
2018-02-15T23:58:50.238Z,18.70
